sensor_id;sensor_type;location;lat;lon;timestamp;pressure;altitude;pressure_sealevel;temperature;humidity
61906;BME280;47863;55.766;37.672;2023-11-19T00:00:50;100805.34;;;-4.96;66.42
61906;BME280;47863;55.766;37.672;2023-11-19T00:03:17;100804.47;;;-4.97;66.90
61906;BME280;47863;55.766;37.672;2023-11-19T00:05:43;100795.81;;;-4.99;66.43
61906;BME280;47863;55.766;37.672;2023-11-19T00:08:10;100792.41;;;-5.03;66.60
61906;BME280;47863;55.766;37.672;2023-11-19T00:10:35;100798.50;;;-5.02;66.93
61906;BME280;47863;55.766;37.672;2023-11-19T00:13:01;100773.66;;;-5.19;66.74
61906;BME280;47863;55.766;37.672;2023-11-19T00:15:28;100788.22;;;-5.10;66.54
61906;BME280;47863;55.766;37.672;2023-11-19T00:17:54;100779.72;;;-5.18;67.12
61906;BME280;47863;55.766;37.672;2023-11-19T00:20:20;100757.78;;;-5.47;66.80
61906;BME280;47863;55.766;37.672;2023-11-19T00:22:48;100787.09;;;-5.35;66.91
61906;BME280;47863;55.766;37.672;2023-11-19T00:25:17;100793.47;;;-5.47;66.88
61906;BME280;47863;55.766;37.672;2023-11-19T00:27:44;100770.53;;;-5.72;66.79
61906;BME280;47863;55.766;37.672;2023-11-19T00:30:10;100752.53;;;-5.84;67.33
61906;BME280;47863;55.766;37.672;2023-11-19T00:32:36;100756.13;;;-5.88;67.26
61906;BME280;47863;55.766;37.672;2023-11-19T00:35:05;100756.31;;;-5.96;67.10
61906;BME280;47863;55.766;37.672;2023-11-19T00:37:32;100783.94;;;-5.89;67.68
61906;BME280;47863;55.766;37.672;2023-11-19T00:39:57;100742.75;;;-6.13;67.66
61906;BME280;47863;55.766;37.672;2023-11-19T00:42:23;100766.94;;;-6.05;67.41
61906;BME280;47863;55.766;37.672;2023-11-19T00:44:52;100767.09;;;-6.13;67.56
61906;BME280;47863;55.766;37.672;2023-11-19T00:47:19;100775.91;;;-6.20;67.06
61906;BME280;47863;55.766;37.672;2023-11-19T00:49:48;100765.69;;;-6.29;67.69
61906;BME280;47863;55.766;37.672;2023-11-19T00:52:17;100769.19;;;-6.32;67.85
61906;BME280;47863;55.766;37.672;2023-11-19T00:54:43;100775.41;;;-6.38;67.71
61906;BME280;47863;55.766;37.672;2023-11-19T00:57:09;100778.09;;;-6.42;67.75
61906;BME280;47863;55.766;37.672;2023-11-19T00:59:34;100758.19;;;-6.46;66.94
61906;BME280;47863;55.766;37.672;2023-11-19T01:02:00;100728.09;;;-6.63;67.10
61906;BME280;47863;55.766;37.672;2023-11-19T01:04:36;100734.94;;;-6.55;67.80
61906;BME280;47863;55.766;37.672;2023-11-19T01:07:05;100740.13;;;-6.55;67.32
61906;BME280;47863;55.766;37.672;2023-11-19T01:09:32;100758.97;;;-6.41;67.04
61906;BME280;47863;55.766;37.672;2023-11-19T01:12:01;100748.53;;;-6.41;67.72
61906;BME280;47863;55.766;37.672;2023-11-19T01:14:27;100739.88;;;-6.42;67.43
61906;BME280;47863;55.766;37.672;2023-11-19T01:16:53;100742.34;;;-6.35;67.32
61906;BME280;47863;55.766;37.672;2023-11-19T01:19:21;100750.09;;;-6.32;67.55
61906;BME280;47863;55.766;37.672;2023-11-19T01:21:47;100716.41;;;-6.42;67.26
61906;BME280;47863;55.766;37.672;2023-11-19T01:24:13;100742.13;;;-6.26;67.18
61906;BME280;47863;55.766;37.672;2023-11-19T01:26:39;100736.03;;;-6.24;67.34
61906;BME280;47863;55.766;37.672;2023-11-19T01:29:11;100726.41;;;-6.22;67.86
61906;BME280;47863;55.766;37.672;2023-11-19T01:31:40;100733.34;;;-6.21;67.53
61906;BME280;47863;55.766;37.672;2023-11-19T01:34:06;100713.47;;;-6.26;67.82
61906;BME280;47863;55.766;37.672;2023-11-19T01:36:32;100728.91;;;-6.15;67.50
61906;BME280;47863;55.766;37.672;2023-11-19T01:38:58;100724.50;;;-6.13;67.72
61906;BME280;47863;55.766;37.672;2023-11-19T01:41:23;100698.75;;;-6.29;67.92
61906;BME280;47863;55.766;37.672;2023-11-19T01:43:50;100698.78;;;-6.32;68.05
61906;BME280;47863;55.766;37.672;2023-11-19T01:46:16;100727.94;;;-6.11;67.32
61906;BME280;47863;55.766;37.672;2023-11-19T01:48:45;100727.03;;;-6.10;67.72
61906;BME280;47863;55.766;37.672;2023-11-19T01:51:15;100730.53;;;-6.10;67.77
61906;BME280;47863;55.766;37.672;2023-11-19T01:53:43;100657.44;;;-6.47;67.54
61906;BME280;47863;55.766;37.672;2023-11-19T01:56:12;100724.38;;;-6.07;67.96
61906;BME280;47863;55.766;37.672;2023-11-19T01:58:39;100722.59;;;-6.05;67.93
61906;BME280;47863;55.766;37.672;2023-11-19T02:01:06;100705.34;;;-6.12;67.95
61906;BME280;47863;55.766;37.672;2023-11-19T02:03:33;100710.47;;;-6.08;68.14
61906;BME280;47863;55.766;37.672;2023-11-19T02:06:02;100693.25;;;-6.16;68.10
61906;BME280;47863;55.766;37.672;2023-11-19T02:08:29;100724.28;;;-6.04;67.75
61906;BME280;47863;55.766;37.672;2023-11-19T02:10:55;100714.78;;;-6.07;67.87
61906;BME280;47863;55.766;37.672;2023-11-19T02:13:26;100712.13;;;-6.04;67.98
61906;BME280;47863;55.766;37.672;2023-11-19T02:15:53;100729.09;;;-5.86;67.72
61906;BME280;47863;55.766;37.672;2023-11-19T02:18:29;100701.19;;;-5.82;67.73
61906;BME280;47863;55.766;37.672;2023-11-19T02:20:56;100722.38;;;-5.59;68.22
61906;BME280;47863;55.766;37.672;2023-11-19T02:23:22;100677.38;;;-5.68;67.48
61906;BME280;47863;55.766;37.672;2023-11-19T02:26:44;100720.97;;;-5.36;67.45
61906;BME280;47863;55.766;37.672;2023-11-19T02:28:44;100660.63;;;-5.60;67.08
61906;BME280;47863;55.766;37.672;2023-11-19T02:31:10;100710.13;;;-5.19;67.18
61906;BME280;47863;55.766;37.672;2023-11-19T02:33:39;100715.19;;;-5.13;67.15
61906;BME280;47863;55.766;37.672;2023-11-19T02:36:06;100699.50;;;-5.13;66.99
61906;BME280;47863;55.766;37.672;2023-11-19T02:38:33;100707.88;;;-5.00;66.83
61906;BME280;47863;55.766;37.672;2023-11-19T02:41:04;100715.59;;;-4.95;67.31
61906;BME280;47863;55.766;37.672;2023-11-19T02:43:35;100678.63;;;-5.14;67.34
61906;BME280;47863;55.766;37.672;2023-11-19T02:46:02;100720.50;;;-4.83;67.33
61906;BME280;47863;55.766;37.672;2023-11-19T02:48:32;100715.94;;;-4.75;67.05
61906;BME280;47863;55.766;37.672;2023-11-19T02:50:58;100713.09;;;-4.67;66.92
61906;BME280;47863;55.766;37.672;2023-11-19T02:53:24;100706.78;;;-4.60;67.07
61906;BME280;47863;55.766;37.672;2023-11-19T02:55:52;100706.56;;;-4.52;66.89
61906;BME280;47863;55.766;37.672;2023-11-19T02:58:18;100712.47;;;-4.44;67.14
61906;BME280;47863;55.766;37.672;2023-11-19T03:00:49;100692.63;;;-4.51;66.85
61906;BME280;47863;55.766;37.672;2023-11-19T03:03:24;100713.00;;;-4.33;67.13
61906;BME280;47863;55.766;37.672;2023-11-19T03:05:54;100688.75;;;-4.38;66.78
61906;BME280;47863;55.766;37.672;2023-11-19T03:08:20;100703.16;;;-4.25;67.31
61906;BME280;47863;55.766;37.672;2023-11-19T03:10:47;100682.56;;;-4.35;66.89
61906;BME280;47863;55.766;37.672;2023-11-19T03:13:13;100702.31;;;-4.25;66.87
61906;BME280;47863;55.766;37.672;2023-11-19T03:15:40;100698.84;;;-4.26;66.91
61906;BME280;47863;55.766;37.672;2023-11-19T03:18:05;100691.16;;;-4.30;67.02
61906;BME280;47863;55.766;37.672;2023-11-19T03:20:31;100691.72;;;-4.21;66.73
61906;BME280;47863;55.766;37.672;2023-11-19T03:22:57;100703.84;;;-4.16;67.03
61906;BME280;47863;55.766;37.672;2023-11-19T03:25:27;100668.47;;;-4.30;66.86
61906;BME280;47863;55.766;37.672;2023-11-19T03:27:59;100682.78;;;-4.13;66.76
61906;BME280;47863;55.766;37.672;2023-11-19T03:30:24;100698.31;;;-4.07;66.76
61906;BME280;47863;55.766;37.672;2023-11-19T03:32:50;100701.84;;;-4.08;66.80
61906;BME280;47863;55.766;37.672;2023-11-19T03:35:15;100656.38;;;-4.34;67.15
61906;BME280;47863;55.766;37.672;2023-11-19T03:37:41;100695.88;;;-4.13;66.70
61906;BME280;47863;55.766;37.672;2023-11-19T03:40:09;100689.16;;;-4.22;66.78
61906;BME280;47863;55.766;37.672;2023-11-19T03:42:35;100669.63;;;-4.40;67.07
61906;BME280;47863;55.766;37.672;2023-11-19T03:45:01;100685.16;;;-4.34;66.68
61906;BME280;47863;55.766;37.672;2023-11-19T03:47:30;100680.81;;;-4.35;66.90
61906;BME280;47863;55.766;37.672;2023-11-19T03:49:56;100688.69;;;-4.36;67.08
61906;BME280;47863;55.766;37.672;2023-11-19T03:52:21;100658.81;;;-4.57;66.96
61906;BME280;47863;55.766;37.672;2023-11-19T03:54:47;100684.66;;;-4.48;66.79
61906;BME280;47863;55.766;37.672;2023-11-19T03:57:13;100670.19;;;-4.60;67.14
61906;BME280;47863;55.766;37.672;2023-11-19T03:59:39;100679.69;;;-4.56;66.86
61906;BME280;47863;55.766;37.672;2023-11-19T04:02:05;100676.31;;;-4.61;67.36
61906;BME280;47863;55.766;37.672;2023-11-19T04:04:31;100647.88;;;-4.72;67.14
61906;BME280;47863;55.766;37.672;2023-11-19T04:06:57;100647.81;;;-4.70;66.85
61906;BME280;47863;55.766;37.672;2023-11-19T04:09:23;100665.84;;;-4.60;67.01
61906;BME280;47863;55.766;37.672;2023-11-19T04:11:49;100633.16;;;-4.76;67.23
61906;BME280;47863;55.766;37.672;2023-11-19T04:14:15;100658.09;;;-4.64;67.18
61906;BME280;47863;55.766;37.672;2023-11-19T04:16:43;100645.22;;;-4.70;67.42
61906;BME280;47863;55.766;37.672;2023-11-19T04:19:09;100654.13;;;-4.78;67.46
61906;BME280;47863;55.766;37.672;2023-11-19T04:21:35;100632.81;;;-4.93;67.33
61906;BME280;47863;55.766;37.672;2023-11-19T04:24:01;100642.31;;;-4.91;67.35
61906;BME280;47863;55.766;37.672;2023-11-19T04:26:26;100629.50;;;-5.02;67.29
61906;BME280;47863;55.766;37.672;2023-11-19T04:28:52;100624.47;;;-5.08;67.40
61906;BME280;47863;55.766;37.672;2023-11-19T04:31:18;100628.06;;;-5.12;67.37
61906;BME280;47863;55.766;37.672;2023-11-19T04:33:43;100628.09;;;-5.13;67.50
61906;BME280;47863;55.766;37.672;2023-11-19T04:36:10;100624.16;;;-5.28;67.41
61906;BME280;47863;55.766;37.672;2023-11-19T04:38:36;100624.50;;;-5.42;67.69
61906;BME280;47863;55.766;37.672;2023-11-19T04:41:04;100637.44;;;-5.38;68.29
61906;BME280;47863;55.766;37.672;2023-11-19T04:43:31;100637.75;;;-5.50;68.01
61906;BME280;47863;55.766;37.672;2023-11-19T04:45:57;100608.59;;;-5.67;68.21
61906;BME280;47863;55.766;37.672;2023-11-19T04:48:23;100626.78;;;-5.63;68.01
61906;BME280;47863;55.766;37.672;2023-11-19T04:50:49;100647.22;;;-5.46;67.85
61906;BME280;47863;55.766;37.672;2023-11-19T04:53:16;100664.50;;;-5.40;68.01
61906;BME280;47863;55.766;37.672;2023-11-19T04:55:42;100663.66;;;-5.41;68.45
61906;BME280;47863;55.766;37.672;2023-11-19T04:58:08;100654.94;;;-5.41;68.13
61906;BME280;47863;55.766;37.672;2023-11-19T05:00:34;100655.81;;;-5.41;67.79
61906;BME280;47863;55.766;37.672;2023-11-19T05:03:00;100654.91;;;-5.40;68.11
61906;BME280;47863;55.766;37.672;2023-11-19T05:05:25;100660.09;;;-5.38;68.13
61906;BME280;47863;55.766;37.672;2023-11-19T05:07:51;100656.53;;;-5.35;68.56
61906;BME280;47863;55.766;37.672;2023-11-19T05:10:17;100655.72;;;-5.38;68.94
61906;BME280;47863;55.766;37.672;2023-11-19T05:12:42;100629.16;;;-5.55;68.52
61906;BME280;47863;55.766;37.672;2023-11-19T05:15:08;100654.25;;;-5.48;68.61
61906;BME280;47863;55.766;37.672;2023-11-19T05:17:34;100632.94;;;-5.67;68.57
61906;BME280;47863;55.766;37.672;2023-11-19T05:20:00;100654.41;;;-5.55;68.66
61906;BME280;47863;55.766;37.672;2023-11-19T05:22:25;100547.31;;;-6.20;69.06
61906;BME280;47863;55.766;37.672;2023-11-19T05:24:51;100631.28;;;-5.69;68.83
61906;BME280;47863;55.766;37.672;2023-11-19T05:27:17;100666.59;;;-5.54;68.71
61906;BME280;47863;55.766;37.672;2023-11-19T05:29:43;100668.22;;;-5.50;69.04
61906;BME280;47863;55.766;37.672;2023-11-19T05:32:09;100667.44;;;-5.54;69.07
61906;BME280;47863;55.766;37.672;2023-11-19T05:34:35;100670.00;;;-5.51;69.12
61906;BME280;47863;55.766;37.672;2023-11-19T05:37:01;100648.41;;;-5.59;69.01
61906;BME280;47863;55.766;37.672;2023-11-19T05:39:28;100627.81;;;-5.70;69.45
61906;BME280;47863;55.766;37.672;2023-11-19T05:41:54;100669.88;;;-5.46;69.31
61906;BME280;47863;55.766;37.672;2023-11-19T05:44:19;100672.31;;;-5.40;69.67
61906;BME280;47863;55.766;37.672;2023-11-19T05:46:45;100645.72;;;-5.54;68.71
61906;BME280;47863;55.766;37.672;2023-11-19T05:49:11;100654.09;;;-5.43;69.12
61906;BME280;47863;55.766;37.672;2023-11-19T05:51:38;100666.06;;;-5.33;69.37
61906;BME280;47863;55.766;37.672;2023-11-19T05:54:08;100666.06;;;-5.33;69.59
61906;BME280;47863;55.766;37.672;2023-11-19T05:56:34;100612.97;;;-5.68;69.48
61906;BME280;47863;55.766;37.672;2023-11-19T05:59:00;100659.06;;;-5.32;69.07
61906;BME280;47863;55.766;37.672;2023-11-19T06:01:27;100665.88;;;-5.25;68.92
61906;BME280;47863;55.766;37.672;2023-11-19T06:03:52;100663.16;;;-5.22;69.00
61906;BME280;47863;55.766;37.672;2023-11-19T06:06:18;100662.34;;;-5.24;69.15
61906;BME280;47863;55.766;37.672;2023-11-19T06:08:44;100635.63;;;-5.35;68.93
61906;BME280;47863;55.766;37.672;2023-11-19T06:11:10;100663.84;;;-5.15;69.26
61906;BME280;47863;55.766;37.672;2023-11-19T06:13:40;100656.13;;;-5.20;68.60
61906;BME280;47863;55.766;37.672;2023-11-19T06:16:06;100654.34;;;-5.18;68.74
61906;BME280;47863;55.766;37.672;2023-11-19T06:18:32;100650.03;;;-5.19;69.18
61906;BME280;47863;55.766;37.672;2023-11-19T06:20:58;100625.97;;;-5.32;68.74
61906;BME280;47863;55.766;37.672;2023-11-19T06:23:23;100655.13;;;-5.14;68.73
61906;BME280;47863;55.766;37.672;2023-11-19T06:25:49;100639.75;;;-5.25;69.15
61906;BME280;47863;55.766;37.672;2023-11-19T06:28:14;100655.66;;;-5.02;68.92
61906;BME280;47863;55.766;37.672;2023-11-19T06:30:40;100660.84;;;-5.00;69.03
61906;BME280;47863;55.766;37.672;2023-11-19T06:33:06;100643.66;;;-5.09;68.79
61906;BME280;47863;55.766;37.672;2023-11-19T06:35:32;100654.94;;;-5.07;69.14
61906;BME280;47863;55.766;37.672;2023-11-19T06:38:04;100664.47;;;-5.06;68.79
61906;BME280;47863;55.766;37.672;2023-11-19T06:40:31;100632.59;;;-5.19;69.34
61906;BME280;47863;55.766;37.672;2023-11-19T06:42:56;100643.06;;;-5.19;68.77
61906;BME280;47863;55.766;37.672;2023-11-19T06:45:22;100641.16;;;-5.13;69.37
61906;BME280;47863;55.766;37.672;2023-11-19T06:47:48;100624.09;;;-5.25;69.60
61906;BME280;47863;55.766;37.672;2023-11-19T06:50:13;100642.13;;;-5.18;68.99
61906;BME280;47863;55.766;37.672;2023-11-19T06:52:40;100629.38;;;-5.28;69.25
61906;BME280;47863;55.766;37.672;2023-11-19T06:55:06;100641.50;;;-5.27;69.07
61906;BME280;47863;55.766;37.672;2023-11-19T06:57:32;100622.53;;;-5.32;69.24
61906;BME280;47863;55.766;37.672;2023-11-19T06:59:58;100640.50;;;-5.22;69.15
61906;BME280;47863;55.766;37.672;2023-11-19T07:02:24;100625.53;;;-5.15;69.51
61906;BME280;47863;55.766;37.672;2023-11-19T07:04:50;100646.28;;;-5.09;68.97
61906;BME280;47863;55.766;37.672;2023-11-19T07:07:16;100645.34;;;-5.08;68.98
61906;BME280;47863;55.766;37.672;2023-11-19T07:09:42;100649.91;;;-5.14;69.69
61906;BME280;47863;55.766;37.672;2023-11-19T07:12:08;100658.75;;;-5.20;69.75
61906;BME280;47863;55.766;37.672;2023-11-19T07:14:34;100649.28;;;-5.24;69.98
61906;BME280;47863;55.766;37.672;2023-11-19T07:17:00;100654.47;;;-5.23;70.42
61906;BME280;47863;55.766;37.672;2023-11-19T07:19:26;100625.97;;;-5.32;70.43
61906;BME280;47863;55.766;37.672;2023-11-19T07:21:52;100618.34;;;-5.40;70.45
61906;BME280;47863;55.766;37.672;2023-11-19T07:24:20;100639.00;;;-5.30;70.64
61906;BME280;47863;55.766;37.672;2023-11-19T07:26:47;100621.94;;;-5.44;70.95
61906;BME280;47863;55.766;37.672;2023-11-19T07:29:13;100646.75;;;-5.27;70.81
61906;BME280;47863;55.766;37.672;2023-11-19T07:31:40;100638.19;;;-5.32;70.98
61906;BME280;47863;55.766;37.672;2023-11-19T07:34:06;100653.41;;;-5.15;70.85
61906;BME280;47863;55.766;37.672;2023-11-19T07:36:32;100654.94;;;-5.07;71.28
61906;BME280;47863;55.766;37.672;2023-11-19T07:38:58;100652.22;;;-5.04;71.02
61906;BME280;47863;55.766;37.672;2023-11-19T07:41:24;100644.25;;;-4.97;70.88
61906;BME280;47863;55.766;37.672;2023-11-19T07:43:50;100650.09;;;-4.89;70.81
61906;BME280;47863;55.766;37.672;2023-11-19T07:46:17;100646.50;;;-4.85;71.06
61906;BME280;47863;55.766;37.672;2023-11-19T07:48:45;100649.19;;;-4.88;70.53
61906;BME280;47863;55.766;37.672;2023-11-19T07:51:13;100629.75;;;-5.09;70.45
61906;BME280;47863;55.766;37.672;2023-11-19T07:53:39;100660.94;;;-5.03;70.62
61906;BME280;47863;55.766;37.672;2023-11-19T07:56:06;100632.63;;;-5.20;70.40
61906;BME280;47863;55.766;37.672;2023-11-19T07:58:33;100640.56;;;-5.23;70.66
61906;BME280;47863;55.766;37.672;2023-11-19T08:00:58;100649.13;;;-5.18;71.07
61906;BME280;47863;55.766;37.672;2023-11-19T08:03:24;100636.28;;;-5.27;71.02
61906;BME280;47863;55.766;37.672;2023-11-19T08:05:50;100649.22;;;-5.21;71.50
61906;BME280;47863;55.766;37.672;2023-11-19T08:08:16;100647.50;;;-5.22;71.42
61906;BME280;47863;55.766;37.672;2023-11-19T08:10:42;100643.00;;;-5.17;71.55
61906;BME280;47863;55.766;37.672;2023-11-19T08:13:10;100613.09;;;-5.38;71.68
61906;BME280;47863;55.766;37.672;2023-11-19T08:15:36;100617.31;;;-5.34;72.02
61906;BME280;47863;55.766;37.672;2023-11-19T08:18:02;100615.66;;;-5.36;72.33
61906;BME280;47863;55.766;37.672;2023-11-19T08:20:27;100628.44;;;-5.26;72.13
61906;BME280;47863;55.766;37.672;2023-11-19T08:22:53;100618.84;;;-5.25;72.63
61906;BME280;47863;55.766;37.672;2023-11-19T08:25:19;100628.00;;;-5.09;72.55
61906;BME280;47863;55.766;37.672;2023-11-19T08:27:44;100588.19;;;-5.19;73.00
61906;BME280;47863;55.766;37.672;2023-11-19T08:30:11;100614.31;;;-4.86;72.46
61906;BME280;47863;55.766;37.672;2023-11-19T08:32:37;100626.72;;;-4.64;72.56
61906;BME280;47863;55.766;37.672;2023-11-19T08:35:03;100618.25;;;-4.43;72.18
61906;BME280;47863;55.766;37.672;2023-11-19T08:37:29;100615.16;;;-4.26;71.23
61906;BME280;47863;55.766;37.672;2023-11-19T08:39:55;100546.75;;;-4.42;71.40
61906;BME280;47863;55.766;37.672;2023-11-19T08:42:21;100623.34;;;-3.82;70.98
61906;BME280;47863;55.766;37.672;2023-11-19T08:44:50;100607.63;;;-3.82;70.48
61906;BME280;47863;55.766;37.672;2023-11-19T08:47:19;100618.63;;;-3.70;70.07
61906;BME280;47863;55.766;37.672;2023-11-19T08:49:45;100613.56;;;-3.75;69.65
61906;BME280;47863;55.766;37.672;2023-11-19T08:52:11;100610.00;;;-3.74;69.93
61906;BME280;47863;55.766;37.672;2023-11-19T08:54:37;100616.97;;;-3.73;70.14
61906;BME280;47863;55.766;37.672;2023-11-19T08:57:03;100610.22;;;-3.80;70.17
61906;BME280;47863;55.766;37.672;2023-11-19T08:59:30;100630.44;;;-3.85;69.51
61906;BME280;47863;55.766;37.672;2023-11-19T09:01:56;100619.69;;;-4.03;69.72
61906;BME280;47863;55.766;37.672;2023-11-19T09:04:21;100621.81;;;-4.15;69.90
61906;BME280;47863;55.766;37.672;2023-11-19T09:06:50;100629.31;;;-4.33;69.44
61906;BME280;47863;55.766;37.672;2023-11-19T09:09:16;100621.16;;;-4.52;69.69
61906;BME280;47863;55.766;37.672;2023-11-19T09:11:41;100594.94;;;-4.80;70.10
61906;BME280;47863;55.766;37.672;2023-11-19T09:14:07;100615.47;;;-4.66;70.38
61906;BME280;47863;55.766;37.672;2023-11-19T09:16:33;100587.88;;;-4.76;70.68
61906;BME280;47863;55.766;37.672;2023-11-19T09:18:59;100612.78;;;-4.63;70.13
61906;BME280;47863;55.766;37.672;2023-11-19T09:21:26;100609.91;;;-4.54;70.63
61906;BME280;47863;55.766;37.672;2023-11-19T09:23:51;100594.78;;;-4.44;70.28
61906;BME280;47863;55.766;37.672;2023-11-19T09:26:19;100600.44;;;-4.30;70.38
61906;BME280;47863;55.766;37.672;2023-11-19T09:28:44;100599.28;;;-4.21;69.97
61906;BME280;47863;55.766;37.672;2023-11-19T09:31:17;100573.38;;;-4.29;69.84
61906;BME280;47863;55.766;37.672;2023-11-19T09:33:43;100564.16;;;-4.41;69.91
61906;BME280;47863;55.766;37.672;2023-11-19T09:36:10;100588.25;;;-4.31;70.03
61906;BME280;47863;55.766;37.672;2023-11-19T09:38:39;100589.38;;;-4.38;70.17
61906;BME280;47863;55.766;37.672;2023-11-19T09:41:05;100585.94;;;-4.40;70.24
61906;BME280;47863;55.766;37.672;2023-11-19T09:43:35;100574.03;;;-4.50;70.27
61906;BME280;47863;55.766;37.672;2023-11-19T09:46:05;100570.69;;;-4.54;70.04
61906;BME280;47863;55.766;37.672;2023-11-19T09:48:35;100564.72;;;-4.59;70.17
61906;BME280;47863;55.766;37.672;2023-11-19T09:51:03;100533.91;;;-4.78;70.09
61906;BME280;47863;55.766;37.672;2023-11-19T09:53:30;100555.41;;;-4.68;70.25
61906;BME280;47863;55.766;37.672;2023-11-19T09:55:56;100560.66;;;-4.69;70.24
61906;BME280;47863;55.766;37.672;2023-11-19T09:58:22;100546.78;;;-4.71;70.08
61906;BME280;47863;55.766;37.672;2023-11-19T10:00:49;100543.47;;;-4.78;69.97
61906;BME280;47863;55.766;37.672;2023-11-19T10:03:15;100545.09;;;-4.74;70.14
61906;BME280;47863;55.766;37.672;2023-11-19T10:05:41;100484.13;;;-5.03;69.85
61906;BME280;47863;55.766;37.672;2023-11-19T10:08:07;100542.84;;;-4.56;70.26
61906;BME280;47863;55.766;37.672;2023-11-19T10:10:42;100536.69;;;-4.54;69.54
61906;BME280;47863;55.766;37.672;2023-11-19T10:13:08;100507.53;;;-4.70;69.92
61906;BME280;47863;55.766;37.672;2023-11-19T10:15:37;100544.03;;;-4.39;69.60
61906;BME280;47863;55.766;37.672;2023-11-19T10:18:03;100498.38;;;-4.56;69.52
61906;BME280;47863;55.766;37.672;2023-11-19T10:20:40;100534.94;;;-4.27;69.38
61906;BME280;47863;55.766;37.672;2023-11-19T10:23:06;100520.25;;;-4.31;68.71
61906;BME280;47863;55.766;37.672;2023-11-19T10:25:32;100479.97;;;-4.52;68.85
61906;BME280;47863;55.766;37.672;2023-11-19T10:27:58;100527.00;;;-4.24;68.91
61906;BME280;47863;55.766;37.672;2023-11-19T10:30:27;100527.09;;;-4.27;68.82
61906;BME280;47863;55.766;37.672;2023-11-19T10:35:33;100523.09;;;-4.39;68.50
61906;BME280;47863;55.766;37.672;2023-11-19T10:38:00;100501.00;;;-4.56;68.01
61906;BME280;47863;55.766;37.672;2023-11-19T10:40:39;100529.66;;;-4.52;68.28
61906;BME280;47863;55.766;37.672;2023-11-19T10:43:08;100519.66;;;-4.67;68.19
61906;BME280;47863;55.766;37.672;2023-11-19T10:45:39;100533.75;;;-4.73;68.20
61906;BME280;47863;55.766;37.672;2023-11-19T10:48:05;100534.09;;;-4.84;68.45
61906;BME280;47863;55.766;37.672;2023-11-19T10:50:36;100532.41;;;-4.86;68.38
61906;BME280;47863;55.766;37.672;2023-11-19T10:53:03;100527.19;;;-4.86;68.58
61906;BME280;47863;55.766;37.672;2023-11-19T10:55:31;100531.34;;;-4.79;68.75
61906;BME280;47863;55.766;37.672;2023-11-19T10:57:59;100527.72;;;-4.75;68.50
61906;BME280;47863;55.766;37.672;2023-11-19T11:00:46;100519.84;;;-4.73;68.30
61906;BME280;47863;55.766;37.672;2023-11-19T11:03:24;100524.13;;;-4.71;68.54
61906;BME280;47863;55.766;37.672;2023-11-19T11:05:51;100499.31;;;-4.86;67.85
61906;BME280;47863;55.766;37.672;2023-11-19T11:08:19;100525.09;;;-4.75;67.79
61906;BME280;47863;55.766;37.672;2023-11-19T11:10:53;100527.34;;;-4.63;67.86
61906;BME280;47863;55.766;37.672;2023-11-19T11:13:22;100519.06;;;-4.49;68.47
61906;BME280;47863;55.766;37.672;2023-11-19T11:15:49;100522.09;;;-4.34;67.89
61906;BME280;47863;55.766;37.672;2023-11-19T11:18:15;100527.91;;;-4.25;68.07
61906;BME280;47863;55.766;37.672;2023-11-19T11:20:44;100518.41;;;-4.27;67.59
61906;BME280;47863;55.766;37.672;2023-11-19T11:23:40;100520.16;;;-4.28;67.94
61906;BME280;47863;55.766;37.672;2023-11-19T11:26:47;100509.59;;;-4.25;67.62
61906;BME280;47863;55.766;37.672;2023-11-19T11:29:35;100508.09;;;-4.32;66.99
61906;BME280;47863;55.766;37.672;2023-11-19T11:32:17;100514.22;;;-4.33;67.84
61906;BME280;47863;55.766;37.672;2023-11-19T11:37:44;100506.56;;;-4.39;66.98
61906;BME280;47863;55.766;37.672;2023-11-19T11:40:16;100500.53;;;-4.41;67.30
61906;BME280;47863;55.766;37.672;2023-11-19T11:42:45;100486.75;;;-4.46;66.66
61906;BME280;47863;55.766;37.672;2023-11-19T11:45:12;100504.91;;;-4.42;66.29
61906;BME280;47863;55.766;37.672;2023-11-19T11:55:33;100494.75;;;-4.79;64.77
61906;BME280;47863;55.766;37.672;2023-11-19T11:58:00;100504.38;;;-4.81;65.30
61906;BME280;47863;55.766;37.672;2023-11-19T12:02:55;100506.38;;;-4.89;65.22
61906;BME280;47863;55.766;37.672;2023-11-19T12:05:21;100492.84;;;-5.04;65.26
61906;BME280;47863;55.766;37.672;2023-11-19T12:08:00;100504.22;;;-5.05;65.20
61906;BME280;47863;55.766;37.672;2023-11-19T12:10:29;100493.91;;;-5.09;65.52
61906;BME280;47863;55.766;37.672;2023-11-19T12:13:00;100498.19;;;-5.07;65.44
61906;BME280;47863;55.766;37.672;2023-11-19T12:15:26;100503.38;;;-5.05;65.96
61906;BME280;47863;55.766;37.672;2023-11-19T12:17:54;100487.00;;;-5.12;65.40
61906;BME280;47863;55.766;37.672;2023-11-19T12:20:22;100502.25;;;-4.98;65.54
61906;BME280;47863;55.766;37.672;2023-11-19T12:22:49;100458.00;;;-5.32;66.00
61906;BME280;47863;55.766;37.672;2023-11-19T12:25:16;100499.66;;;-4.98;65.79
61906;BME280;47863;55.766;37.672;2023-11-19T12:27:49;100491.22;;;-5.08;64.84
61906;BME280;47863;55.766;37.672;2023-11-19T12:30:25;100490.31;;;-5.05;65.54
61906;BME280;47863;55.766;37.672;2023-11-19T12:32:51;100487.69;;;-5.05;65.55
61906;BME280;47863;55.766;37.672;2023-11-19T12:35:19;100473.28;;;-5.19;65.64
61906;BME280;47863;55.766;37.672;2023-11-19T12:37:47;100493.00;;;-5.08;65.53
61906;BME280;47863;55.766;37.672;2023-11-19T12:40:20;100491.28;;;-5.09;65.34
61906;BME280;47863;55.766;37.672;2023-11-19T12:42:51;100484.19;;;-5.06;65.66
61906;BME280;47863;55.766;37.672;2023-11-19T12:45:18;100456.63;;;-5.16;65.94
61906;BME280;47863;55.766;37.672;2023-11-19T12:47:45;100467.53;;;-5.02;65.53
61906;BME280;47863;55.766;37.672;2023-11-19T12:50:13;100471.88;;;-5.01;65.82
61906;BME280;47863;55.766;37.672;2023-11-19T12:52:39;100454.72;;;-5.09;65.70
61906;BME280;47863;55.766;37.672;2023-11-19T12:55:23;100471.63;;;-4.93;65.71
61906;BME280;47863;55.766;37.672;2023-11-19T12:57:49;100475.91;;;-4.90;65.95